createdAt,value
2023-05-09T00:00:49.572Z,5.10
2023-05-09T00:01:49.618Z,4.90
2023-05-09T00:02:49.594Z,6.10
2023-05-09T00:03:49.551Z,8.70
2023-05-09T00:04:49.595Z,6.50
2023-05-09T00:05:49.532Z,5.50
2023-05-09T00:06:49.501Z,5.60
2023-05-09T00:07:49.532Z,5.90
2023-05-09T00:08:49.469Z,6.10
2023-05-09T00:09:49.467Z,6.50
2023-05-09T00:10:49.456Z,6.10
2023-05-09T00:11:49.465Z,5.00
2023-05-09T00:12:49.526Z,5.30
2023-05-09T00:13:49.432Z,6.30
2023-05-09T00:14:49.397Z,6.90
2023-05-09T00:15:49.398Z,8.10
2023-05-09T00:16:49.498Z,7.00
2023-05-09T00:17:49.426Z,5.10
2023-05-09T00:18:49.373Z,7.90
2023-05-09T00:19:49.379Z,7.20
2023-05-09T00:20:49.353Z,8.10
2023-05-09T00:21:49.336Z,7.80
2023-05-09T00:22:49.379Z,6.20
2023-05-09T00:23:49.336Z,6.10
2023-05-09T00:24:49.297Z,6.00
2023-05-09T00:25:49.337Z,6.00
2023-05-09T00:26:49.283Z,5.60
2023-05-09T00:27:49.287Z,4.60
2023-05-09T00:28:49.280Z,6.20
2023-05-09T00:29:49.287Z,5.00
2023-05-09T00:30:49.236Z,5.30
2023-05-09T00:31:49.285Z,10.20
2023-05-09T00:32:49.270Z,6.70
2023-05-09T00:33:49.230Z,6.60
2023-05-09T00:34:49.194Z,7.70
2023-05-09T00:35:49.220Z,8.20
2023-05-09T00:36:49.220Z,6.40
2023-05-09T00:37:49.184Z,4.90
2023-05-09T00:38:49.162Z,7.10
2023-05-09T00:39:49.153Z,5.10
2023-05-09T00:40:49.160Z,7.50
2023-05-09T00:41:49.158Z,5.90
2023-05-09T00:42:49.145Z,5.70
2023-05-09T00:43:49.166Z,12.10
2023-05-09T00:44:49.090Z,8.40
2023-05-09T00:45:49.120Z,8.00
2023-05-09T00:46:49.081Z,6.80
2023-05-09T00:47:49.125Z,8.30
2023-05-09T00:48:49.057Z,7.30
2023-05-09T00:49:49.089Z,6.00
2023-05-09T00:50:49.037Z,7.20
2023-05-09T00:51:49.062Z,6.20
2023-05-09T00:52:49.038Z,7.20
2023-05-09T00:53:49.035Z,9.80
2023-05-09T00:54:48.988Z,6.90
2023-05-09T00:55:48.994Z,4.70
2023-05-09T00:56:49.006Z,6.20
2023-05-09T00:57:48.980Z,9.00
2023-05-09T00:58:48.936Z,7.20
2023-05-09T00:59:48.954Z,6.90
2023-05-09T01:00:48.928Z,4.80
2023-05-09T01:01:49.006Z,6.90
2023-05-09T01:02:48.948Z,6.40
2023-05-09T01:03:48.968Z,5.40
2023-05-09T01:04:48.930Z,9.60
2023-05-09T01:05:48.871Z,10.00
2023-05-09T01:06:48.882Z,8.40
2023-05-09T01:07:48.893Z,8.00
2023-05-09T01:08:48.890Z,7.50
2023-05-09T01:09:48.840Z,7.60
2023-05-09T01:10:48.925Z,6.10
2023-05-09T01:11:48.812Z,7.90
2023-05-09T01:12:48.842Z,5.60
2023-05-09T01:13:48.820Z,6.80
2023-05-09T01:14:48.791Z,8.70
2023-05-09T01:15:48.834Z,7.80
2023-05-09T01:16:48.788Z,7.60
2023-05-09T01:17:48.804Z,8.00
2023-05-09T01:18:48.720Z,7.30
2023-05-09T01:19:48.774Z,10.00
2023-05-09T01:20:48.728Z,6.20
2023-05-09T01:21:48.706Z,8.70
2023-05-09T01:22:48.725Z,8.90
2023-05-09T01:23:48.715Z,12.80
2023-05-09T01:24:48.670Z,9.10
2023-05-09T01:25:48.713Z,6.50
2023-05-09T01:26:48.724Z,6.50
2023-05-09T01:27:48.676Z,8.30
2023-05-09T01:28:48.615Z,10.20
2023-05-09T01:29:48.634Z,8.60
2023-05-09T01:30:48.621Z,10.00
2023-05-09T01:31:48.710Z,5.60
2023-05-09T01:32:48.606Z,6.40
2023-05-09T01:33:48.601Z,5.80
2023-05-09T01:34:48.580Z,6.70
2023-05-09T01:35:48.626Z,7.30
2023-05-09T01:36:48.544Z,7.60
2023-05-09T01:37:48.523Z,7.50
2023-05-09T01:38:48.538Z,8.10
2023-05-09T01:39:48.532Z,9.30
2023-05-09T01:40:48.536Z,6.20
2023-05-09T01:41:48.521Z,7.10
2023-05-09T01:42:48.439Z,7.30
2023-05-09T01:43:48.525Z,7.10
2023-05-09T01:44:48.580Z,7.70
2023-05-09T01:45:48.456Z,9.60
2023-05-09T01:46:48.491Z,6.80
2023-05-09T01:47:48.579Z,8.20
2023-05-09T01:48:48.404Z,7.40
2023-05-09T01:49:48.467Z,9.00
2023-05-09T01:50:48.405Z,8.30
2023-05-09T01:51:48.445Z,8.50
2023-05-09T01:52:48.386Z,8.80
2023-05-09T01:53:48.371Z,10.10
2023-05-09T01:54:48.378Z,8.80
2023-05-09T01:55:48.315Z,10.80
2023-05-09T01:56:48.358Z,7.40
2023-05-09T01:57:48.354Z,7.40
2023-05-09T01:58:48.431Z,7.90
2023-05-09T01:59:48.308Z,7.30
2023-05-09T02:00:48.352Z,6.60
2023-05-09T02:01:48.356Z,7.60
2023-05-09T02:02:48.406Z,6.90
2023-05-09T02:03:48.278Z,7.30
2023-05-09T02:04:48.266Z,8.00
2023-05-09T02:05:48.270Z,6.40
2023-05-09T02:06:48.255Z,7.30
2023-05-09T02:07:48.252Z,7.90
2023-05-09T02:08:48.220Z,7.50
2023-05-09T02:09:48.198Z,7.10
2023-05-09T02:10:48.187Z,9.20
2023-05-09T02:11:48.198Z,5.80
2023-05-09T02:12:48.185Z,6.40
2023-05-09T02:13:48.184Z,6.40
2023-05-09T02:14:48.145Z,5.80
2023-05-09T02:15:48.199Z,6.80
2023-05-09T02:16:48.171Z,8.50
2023-05-09T02:17:48.184Z,9.40
2023-05-09T02:18:48.194Z,8.10
2023-05-09T02:19:48.124Z,7.40
2023-05-09T02:20:48.103Z,8.60
2023-05-09T02:21:48.086Z,8.30
2023-05-09T02:22:48.111Z,8.20
2023-05-09T02:23:48.087Z,10.20
2023-05-09T02:24:48.047Z,11.80
2023-05-09T02:25:48.035Z,9.00
2023-05-09T02:26:48.080Z,7.80
2023-05-09T02:27:48.020Z,8.80
2023-05-09T02:28:48.039Z,7.40
2023-05-09T02:29:47.986Z,8.40
2023-05-09T02:30:47.962Z,8.70
2023-05-09T02:31:48.011Z,8.10
2023-05-09T02:32:47.994Z,6.30
2023-05-09T02:33:48.026Z,6.00
2023-05-09T02:34:47.944Z,6.10
2023-05-09T02:35:47.944Z,7.10
2023-05-09T02:36:47.930Z,7.30
2023-05-09T02:37:47.930Z,6.70
2023-05-09T02:38:47.897Z,7.40
2023-05-09T02:39:47.905Z,7.60
2023-05-09T02:40:48.071Z,7.80
2023-05-09T02:41:47.865Z,6.30
2023-05-09T02:42:47.862Z,7.70
2023-05-09T02:43:47.928Z,7.70
2023-05-09T02:44:47.835Z,8.80
2023-05-09T02:45:47.876Z,7.90
2023-05-09T02:46:47.828Z,8.90
2023-05-09T02:47:47.835Z,8.10
2023-05-09T02:48:47.792Z,7.10
2023-05-09T02:49:47.825Z,7.50
2023-05-09T02:50:47.795Z,6.70
2023-05-09T02:51:47.796Z,10.70
2023-05-09T02:52:47.769Z,7.10
2023-05-09T02:53:47.742Z,7.40
2023-05-09T02:54:47.760Z,8.40
2023-05-09T02:55:47.745Z,6.30
2023-05-09T02:56:47.744Z,6.50
2023-05-09T02:57:47.908Z,7.20
2023-05-09T02:58:47.719Z,9.00
2023-05-09T02:59:47.685Z,7.60
2023-05-09T03:00:47.693Z,8.00
2023-05-09T03:01:47.769Z,8.30
2023-05-09T03:02:47.677Z,8.50
2023-05-09T03:03:47.743Z,6.10
2023-05-09T03:04:47.621Z,9.70
2023-05-09T03:05:47.625Z,7.40
2023-05-09T03:06:47.594Z,7.20
2023-05-09T03:07:47.668Z,13.90
2023-05-09T03:08:47.591Z,10.40
2023-05-09T03:09:48.339Z,8.80
2023-05-09T03:10:47.579Z,8.40
2023-05-09T03:11:47.578Z,5.90
2023-05-09T03:12:47.535Z,8.60
2023-05-09T03:13:47.464Z,5.90
2023-05-09T03:14:47.519Z,8.60
2023-05-09T03:15:47.494Z,6.50
2023-05-09T03:16:47.521Z,6.90
2023-05-09T03:17:47.491Z,9.20
2023-05-09T03:18:47.499Z,6.90
2023-05-09T03:19:47.437Z,7.90
2023-05-09T03:20:47.421Z,9.00
2023-05-09T03:21:47.422Z,6.30
2023-05-09T03:22:47.439Z,7.70
2023-05-09T03:23:47.450Z,7.90
2023-05-09T03:24:47.435Z,9.60
2023-05-09T03:25:47.347Z,8.70
2023-05-09T03:26:47.360Z,8.80
2023-05-09T03:27:47.369Z,9.80
2023-05-09T03:28:47.303Z,8.20
2023-05-09T03:29:47.333Z,8.90
2023-05-09T03:30:47.326Z,6.90
2023-05-09T03:31:47.369Z,6.30
2023-05-09T03:32:47.294Z,7.90
2023-05-09T03:33:47.267Z,6.60
2023-05-09T03:34:47.302Z,9.70
2023-05-09T03:35:47.231Z,7.50
2023-05-09T03:36:47.309Z,6.90
2023-05-09T03:37:47.236Z,7.70
2023-05-09T03:38:47.213Z,11.00
2023-05-09T03:39:47.223Z,5.20
2023-05-09T03:40:47.201Z,6.70
2023-05-09T03:41:47.184Z,8.00
2023-05-09T03:42:47.169Z,7.30
2023-05-09T03:43:47.147Z,7.40
2023-05-09T03:44:47.170Z,8.10
2023-05-09T03:45:47.168Z,9.40
2023-05-09T03:46:47.159Z,7.90
2023-05-09T03:47:47.207Z,8.10
2023-05-09T03:48:47.121Z,10.00
2023-05-09T03:49:47.100Z,8.70
2023-05-09T03:50:47.092Z,7.70
2023-05-09T03:51:47.121Z,8.30
2023-05-09T03:52:47.069Z,9.40
2023-05-09T03:53:47.068Z,7.00
2023-05-09T03:54:47.061Z,7.60
2023-05-09T03:55:47.046Z,7.20
2023-05-09T03:56:47.064Z,7.30
2023-05-09T03:57:47.059Z,9.80
2023-05-09T03:58:47.053Z,6.70
2023-05-09T03:59:46.998Z,8.60
2023-05-09T04:00:47.002Z,10.90
2023-05-09T04:01:46.963Z,6.30
2023-05-09T04:02:47.013Z,6.60
2023-05-09T04:03:46.987Z,8.70
2023-05-09T04:04:46.937Z,7.80
2023-05-09T04:05:46.941Z,11.70
2023-05-09T04:06:46.924Z,7.00
2023-05-09T04:07:46.916Z,7.70
2023-05-09T04:08:47.060Z,8.10
2023-05-09T04:09:46.881Z,6.60
2023-05-09T04:10:47.020Z,7.90
2023-05-09T04:11:46.887Z,7.50
2023-05-09T04:12:46.946Z,7.60
2023-05-09T04:13:46.929Z,8.80
2023-05-09T04:14:48.809Z,7.50
2023-05-09T04:15:46.815Z,10.50
2023-05-09T04:16:46.832Z,5.70
2023-05-09T04:17:46.863Z,8.10
2023-05-09T04:18:46.798Z,7.90
2023-05-09T04:19:46.796Z,8.30
2023-05-09T04:20:46.763Z,8.60
2023-05-09T04:21:46.787Z,9.30
2023-05-09T04:22:47.130Z,8.00
2023-05-09T04:23:46.742Z,9.90
2023-05-09T04:24:46.749Z,5.90
2023-05-09T04:25:46.713Z,7.30
2023-05-09T04:26:46.729Z,7.50
2023-05-09T04:27:46.686Z,6.30
2023-05-09T04:28:46.699Z,8.40
2023-05-09T04:29:46.702Z,8.80
2023-05-09T04:30:46.733Z,6.30
2023-05-09T04:31:46.715Z,6.50
2023-05-09T04:32:46.674Z,7.20
2023-05-09T04:33:46.633Z,4.60
2023-05-09T04:34:46.694Z,6.40
2023-05-09T04:35:46.585Z,8.00
2023-05-09T04:36:46.605Z,8.00
2023-05-09T04:37:46.579Z,9.90
2023-05-09T04:38:46.595Z,7.60
2023-05-09T04:39:46.583Z,7.20
2023-05-09T04:40:46.548Z,6.60
2023-05-09T04:41:46.562Z,7.30
2023-05-09T04:42:46.557Z,8.10
2023-05-09T04:43:46.537Z,6.50
2023-05-09T04:44:46.665Z,13.30
2023-05-09T04:45:46.511Z,8.10
2023-05-09T04:46:46.648Z,7.80
2023-05-09T04:47:46.495Z,8.80
2023-05-09T04:48:46.515Z,8.10
2023-05-09T04:49:46.528Z,6.40
2023-05-09T04:50:56.994Z,6.50
2023-05-09T04:51:46.460Z,7.20
2023-05-09T04:52:46.436Z,6.80
2023-05-09T04:53:46.443Z,5.80
2023-05-09T04:54:46.446Z,8.40
2023-05-09T04:55:46.402Z,9.10
2023-05-09T04:56:47.851Z,8.90
2023-05-09T04:57:46.384Z,5.10
2023-05-09T04:58:46.441Z,10.50
2023-05-09T04:59:46.363Z,7.90
2023-05-09T05:00:58.065Z,8.10
2023-05-09T05:01:46.458Z,9.50
2023-05-09T05:02:46.339Z,9.80
2023-05-09T05:03:46.332Z,8.10
2023-05-09T05:04:46.344Z,9.80
2023-05-09T05:05:46.661Z,9.20
2023-05-09T05:06:46.370Z,7.70
2023-05-09T05:07:46.332Z,7.00
2023-05-09T05:08:46.258Z,10.70
2023-05-09T05:09:46.293Z,9.00
2023-05-09T05:12:02.422Z,9.00
2023-05-09T05:13:00.750Z,7.00
2023-05-09T05:14:00.587Z,19.80
2023-05-09T05:15:00.610Z,9.40
2023-05-09T05:18:40.125Z,8.80
2023-05-09T05:19:41.249Z,11.10
2023-05-09T05:20:41.431Z,11.40
2023-05-09T05:21:41.105Z,11.80
2023-05-09T05:22:41.080Z,7.90
2023-05-09T05:23:41.039Z,6.90
2023-05-09T05:26:01.687Z,9.10
2023-05-09T05:27:02.810Z,11.20
2023-05-09T05:28:02.563Z,7.00
2023-05-09T05:29:02.597Z,11.80
2023-05-09T05:30:02.553Z,11.20
2023-05-09T05:31:02.540Z,7.70
2023-05-09T05:32:02.528Z,10.20
2023-05-09T05:33:02.570Z,11.20
2023-05-09T05:34:02.522Z,10.10
2023-05-09T05:35:02.516Z,9.10
2023-05-09T05:36:02.462Z,10.70
2023-05-09T05:37:02.505Z,8.40
2023-05-09T05:38:02.446Z,8.70
2023-05-09T05:39:02.444Z,12.10
2023-05-09T05:40:02.418Z,11.80
2023-05-09T05:41:02.434Z,12.80
2023-05-09T05:42:02.406Z,9.90
2023-05-09T05:43:02.417Z,9.60
2023-05-09T05:44:02.434Z,9.30
2023-05-09T05:45:02.406Z,8.20
2023-05-09T05:46:02.482Z,10.30
2023-05-09T05:47:02.347Z,6.90
2023-05-09T05:48:02.656Z,10.10
2023-05-09T05:49:02.348Z,12.30
2023-05-09T05:50:02.405Z,13.30
2023-05-09T05:51:02.299Z,11.40
2023-05-09T05:52:02.286Z,7.90
2023-05-09T05:55:09.780Z,10.50
2023-05-09T05:56:11.050Z,10.40
2023-05-09T05:57:10.751Z,12.40
2023-05-09T05:58:10.699Z,8.90
2023-05-09T05:59:13.065Z,12.10
2023-05-09T06:00:10.655Z,7.50
2023-05-09T06:01:10.661Z,8.80
2023-05-09T06:03:38.712Z,9.60
2023-05-09T06:04:39.589Z,11.20
2023-05-09T06:05:39.475Z,13.20
2023-05-09T06:06:39.434Z,9.10
2023-05-09T06:07:39.398Z,10.30
2023-05-09T06:08:39.410Z,11.10
2023-05-09T06:09:39.418Z,13.10
2023-05-09T06:10:39.451Z,14.60
2023-05-09T06:11:39.417Z,12.30
2023-05-09T06:12:39.467Z,10.10
2023-05-09T06:13:54.976Z,15.50
2023-05-09T06:14:39.374Z,20.30
2023-05-09T06:15:39.354Z,15.80
2023-05-09T06:16:39.327Z,12.20
2023-05-09T06:17:51.552Z,10.40
2023-05-09T06:18:39.569Z,11.80
2023-05-09T06:19:39.369Z,12.80
2023-05-09T06:20:39.277Z,12.40
2023-05-09T06:21:39.252Z,15.40
2023-05-09T06:22:39.277Z,10.40
2023-05-09T06:25:27.644Z,12.60
2023-05-09T06:26:28.645Z,13.60
2023-05-09T06:27:28.588Z,15.60
2023-05-09T06:28:28.662Z,11.10
2023-05-09T06:29:28.631Z,9.60
2023-05-09T06:30:28.606Z,10.60
2023-05-09T06:31:28.668Z,12.10
2023-05-09T06:32:28.562Z,12.20
2023-05-09T06:33:28.528Z,14.30
2023-05-09T06:34:28.695Z,12.40
2023-05-09T06:35:28.562Z,12.30
2023-05-09T06:36:41.999Z,11.70
2023-05-09T06:37:28.712Z,10.40
2023-05-09T06:38:28.497Z,10.70
2023-05-09T06:39:28.691Z,14.90
2023-05-09T06:40:28.485Z,8.30
2023-05-09T06:41:28.620Z,14.50
2023-05-09T06:42:38.473Z,12.20
2023-05-09T06:43:28.430Z,11.30
2023-05-09T06:44:28.414Z,8.90
2023-05-09T06:45:28.435Z,12.10
2023-05-09T06:46:28.393Z,12.50
2023-05-09T06:47:28.419Z,10.10
2023-05-09T06:48:28.364Z,15.10
2023-05-09T06:49:28.369Z,8.80
2023-05-09T06:50:29.122Z,10.70
2023-05-09T06:51:28.410Z,10.00
2023-05-09T06:52:28.386Z,12.90
2023-05-09T06:53:28.352Z,11.40
2023-05-09T06:54:28.444Z,11.10
2023-05-09T06:55:28.296Z,12.30
2023-05-09T06:56:28.288Z,17.30
2023-05-09T06:57:28.254Z,14.50
2023-05-09T06:58:28.352Z,12.70
2023-05-09T06:59:28.495Z,10.00
2023-05-09T07:00:28.238Z,12.90
2023-05-09T07:01:28.286Z,11.60
2023-05-09T07:02:28.308Z,12.40
2023-05-09T07:03:28.251Z,8.70
2023-05-09T07:04:28.211Z,10.90
2023-05-09T07:05:28.414Z,9.50
2023-05-09T07:06:28.258Z,15.60
2023-05-09T07:07:28.200Z,12.30
2023-05-09T07:08:28.233Z,14.40
2023-05-09T07:11:12.421Z,11.70
2023-05-09T07:12:13.375Z,13.00
2023-05-09T07:13:13.482Z,11.60
2023-05-09T07:14:13.343Z,12.20
2023-05-09T07:15:13.564Z,12.20
2023-05-09T07:16:13.449Z,13.30
2023-05-09T07:17:23.040Z,11.30
2023-05-09T07:18:13.351Z,12.60
2023-05-09T07:19:13.342Z,10.40
2023-05-09T07:20:13.312Z,11.10
2023-05-09T07:21:13.320Z,12.40
2023-05-09T07:22:13.643Z,11.10
2023-05-09T07:23:13.340Z,7.60
2023-05-09T07:26:46.263Z,13.40
2023-05-09T07:27:47.209Z,11.00
2023-05-09T07:28:47.140Z,11.60
2023-05-09T07:29:47.206Z,12.20
2023-05-09T07:30:47.091Z,13.50
2023-05-09T07:31:47.185Z,12.30
2023-05-09T07:32:47.315Z,11.90
2023-05-09T07:33:47.202Z,19.20
2023-05-09T07:34:47.070Z,16.30
2023-05-09T07:35:47.044Z,17.50
2023-05-09T07:36:47.085Z,15.80
2023-05-09T07:37:47.071Z,13.70
2023-05-09T07:38:47.049Z,12.70
2023-05-09T07:39:47.014Z,15.00
2023-05-09T07:40:47.017Z,13.10
2023-05-09T07:41:48.678Z,14.60
2023-05-09T07:42:46.981Z,13.60
2023-05-09T07:43:46.980Z,10.60
2023-05-09T07:44:46.942Z,10.40
2023-05-09T07:45:47.010Z,18.10
2023-05-09T07:46:46.922Z,14.80
2023-05-09T07:47:47.018Z,16.50
2023-05-09T07:48:47.182Z,14.50
2023-05-09T07:49:47.973Z,12.70
2023-05-09T07:50:47.911Z,10.50
2023-05-09T07:51:47.234Z,14.20
2023-05-09T07:52:46.867Z,17.00
2023-05-09T07:53:47.079Z,17.80
2023-05-09T07:54:46.867Z,11.70
2023-05-09T07:55:46.821Z,12.50
2023-05-09T07:56:46.897Z,9.50
2023-05-09T07:57:46.820Z,16.30
2023-05-09T07:58:46.829Z,14.10
2023-05-09T07:59:46.889Z,17.90
2023-05-09T08:00:46.876Z,8.80
2023-05-09T08:01:46.756Z,18.00
2023-05-09T08:02:48.395Z,12.20
2023-05-09T08:03:46.810Z,16.50
2023-05-09T08:04:46.738Z,15.30
2023-05-09T08:05:46.731Z,12.20
2023-05-09T08:06:46.701Z,11.30
2023-05-09T08:07:46.736Z,14.80
2023-05-09T08:08:46.712Z,13.70
2023-05-09T08:09:46.729Z,13.60
2023-05-09T08:10:46.699Z,12.30
2023-05-09T08:11:46.677Z,15.80
2023-05-09T08:12:46.732Z,11.40
2023-05-09T08:15:48.133Z,12.80
2023-05-09T08:17:08.794Z,12.60
2023-05-09T08:17:49.132Z,12.70
2023-05-09T08:18:49.049Z,9.50
2023-05-09T08:22:24.849Z,15.40
2023-05-09T08:23:25.874Z,12.00
2023-05-09T08:24:25.810Z,15.00
2023-05-09T08:25:25.787Z,15.60
2023-05-09T08:26:25.726Z,15.40
2023-05-09T08:27:25.743Z,13.60
2023-05-09T08:28:25.700Z,12.70
2023-05-09T08:29:25.763Z,11.80
2023-05-09T08:30:25.774Z,16.00
2023-05-09T08:31:25.751Z,10.30
2023-05-09T08:32:25.725Z,10.10
2023-05-09T08:33:25.676Z,9.40
2023-05-09T08:34:25.651Z,10.30
2023-05-09T08:35:25.772Z,11.80
2023-05-09T08:36:25.687Z,12.80
2023-05-09T08:37:25.635Z,11.70
2023-05-09T08:38:25.673Z,7.50
2023-05-09T08:39:25.621Z,9.40
2023-05-09T08:40:25.655Z,11.80
2023-05-09T08:41:25.616Z,9.90
2023-05-09T08:42:26.521Z,15.70
2023-05-09T08:43:25.712Z,8.60
2023-05-09T08:44:25.571Z,10.50
2023-05-09T08:45:25.550Z,8.00
2023-05-09T08:46:25.712Z,11.40
2023-05-09T08:47:25.575Z,15.30
2023-05-09T08:48:25.538Z,10.80
2023-05-09T08:49:25.824Z,15.60
2023-05-09T08:50:25.492Z,9.00
2023-05-09T08:51:25.520Z,12.80
2023-05-09T09:12:13.663Z,13.70
2023-05-09T09:13:14.859Z,13.90
2023-05-09T09:14:14.430Z,12.90
2023-05-09T09:15:14.426Z,10.60
2023-05-09T09:16:14.458Z,11.10
2023-05-09T09:17:14.397Z,8.60
2023-05-09T09:18:14.402Z,11.60
2023-05-09T09:19:14.391Z,10.30
2023-05-09T09:20:14.574Z,8.60
2023-05-09T09:21:14.324Z,11.10
2023-05-09T09:22:14.325Z,10.00
2023-05-09T09:23:14.373Z,11.90
2023-05-09T09:24:14.304Z,12.50
2023-05-09T09:25:14.298Z,11.00
2023-05-09T09:26:14.292Z,10.20
2023-05-09T09:27:14.390Z,8.50
2023-05-09T09:28:14.279Z,9.30
2023-05-09T09:29:14.228Z,9.60
2023-05-09T09:30:14.415Z,9.20
2023-05-09T09:31:16.022Z,9.20
2023-05-09T09:32:14.396Z,12.00
2023-05-09T09:33:14.234Z,9.80
2023-05-09T09:46:15.160Z,12.80
2023-05-09T10:03:39.295Z,10.60
2023-05-09T10:04:30.175Z,10.90
2023-05-09T10:05:29.946Z,9.80
2023-05-09T10:06:29.885Z,10.10
2023-05-09T10:07:29.866Z,8.10
2023-05-09T10:08:30.775Z,9.30
2023-05-09T10:09:29.865Z,10.50
2023-05-09T10:10:31.513Z,9.00
2023-05-09T10:11:30.027Z,8.30
2023-05-09T10:12:29.831Z,8.60
2023-05-09T10:46:00.562Z,8.50
2023-05-09T11:34:39.245Z,6.70
2023-05-09T11:35:40.161Z,7.30
2023-05-09T11:36:40.101Z,6.20
2023-05-09T12:29:54.377Z,5.00
2023-05-09T12:30:53.638Z,5.10
2023-05-09T12:31:53.875Z,6.90
2023-05-09T12:32:53.741Z,5.50
2023-05-09T12:33:53.662Z,4.00
2023-05-09T12:34:53.606Z,5.10
2023-05-09T12:46:02.540Z,4.10
2023-05-09T12:47:03.521Z,8.20
2023-05-09T12:48:03.516Z,5.70
2023-05-09T12:49:03.583Z,5.50
2023-05-09T12:50:03.566Z,5.20
2023-05-09T12:51:03.534Z,5.10
2023-05-09T12:52:04.995Z,8.40
2023-05-09T12:53:03.846Z,6.10
2023-05-09T12:54:03.434Z,5.50
2023-05-09T12:55:03.446Z,4.30
2023-05-09T12:56:03.393Z,4.30
2023-05-09T12:57:03.387Z,5.50
2023-05-09T12:58:03.733Z,8.90
2023-05-09T12:59:03.374Z,7.10
2023-05-09T13:00:03.501Z,7.20
2023-05-09T13:01:03.374Z,8.70
2023-05-09T13:02:04.135Z,5.30
2023-05-09T13:03:03.397Z,5.90
2023-05-09T13:04:03.363Z,5.40
2023-05-09T13:05:03.288Z,4.00
2023-05-09T13:06:03.335Z,5.10
2023-05-09T13:11:11.900Z,4.10
2023-05-09T13:12:00.359Z,4.90
2023-05-09T13:13:00.130Z,4.90
2023-05-09T13:14:00.160Z,3.70
2023-05-09T13:15:00.092Z,6.20
2023-05-09T13:54:44.930Z,6.50
2023-05-09T13:55:45.828Z,4.90
2023-05-09T13:56:45.725Z,2.70
2023-05-09T13:57:45.612Z,4.30
2023-05-09T14:00:15.704Z,4.30
2023-05-09T14:01:14.650Z,3.30
2023-05-09T14:02:14.557Z,3.80
2023-05-09T14:03:14.714Z,5.70
2023-05-09T14:04:14.584Z,3.90
2023-05-09T14:05:14.512Z,3.70
2023-05-09T14:06:15.444Z,4.60
2023-05-09T14:07:14.447Z,3.70
2023-05-09T14:08:14.663Z,4.00
2023-05-09T14:09:14.461Z,4.00
2023-05-09T14:10:14.525Z,3.50
2023-05-09T14:11:14.622Z,4.40
2023-05-09T14:12:15.459Z,4.20
2023-05-09T14:13:14.397Z,4.90
2023-05-09T14:14:14.368Z,4.10
2023-05-09T14:15:14.381Z,3.10
2023-05-09T14:16:14.390Z,5.20
2023-05-09T14:17:14.359Z,3.50
2023-05-09T14:18:17.756Z,3.60
2023-05-09T14:19:14.351Z,3.50
2023-05-09T14:20:14.544Z,3.40
2023-05-09T14:21:14.322Z,3.50
2023-05-09T14:22:14.272Z,3.70
2023-05-09T14:23:14.272Z,5.20
2023-05-09T14:24:16.111Z,3.50
2023-05-09T14:25:14.254Z,2.80
2023-05-09T14:26:14.350Z,3.50
2023-05-09T14:27:14.272Z,3.90
2023-05-09T14:28:14.305Z,3.40
2023-05-09T14:29:14.224Z,3.50
2023-05-09T14:30:14.382Z,5.10
2023-05-09T14:31:14.283Z,4.90
2023-05-09T14:32:14.250Z,3.70
2023-05-09T14:33:14.233Z,4.60
2023-05-09T14:34:14.296Z,3.70
2023-05-09T14:35:14.257Z,2.90
2023-05-09T14:36:14.165Z,7.10
2023-05-09T14:37:14.119Z,3.40
2023-05-09T14:38:14.752Z,3.40
2023-05-09T14:39:14.097Z,2.60
2023-05-09T14:40:14.293Z,3.00
2023-05-09T14:41:14.157Z,2.60
2023-05-09T14:42:14.251Z,4.00
2023-05-09T14:43:14.076Z,2.40
2023-05-09T14:44:14.076Z,3.40
2023-05-09T14:45:14.072Z,5.50
2023-05-09T14:46:14.085Z,5.50
2023-05-09T14:47:14.102Z,2.70
2023-05-09T14:48:15.938Z,3.80
2023-05-09T14:49:14.000Z,4.70
2023-05-09T14:50:14.163Z,8.20
2023-05-09T14:51:13.989Z,5.80
2023-05-09T14:52:13.961Z,7.50
2023-05-09T14:53:14.026Z,9.90
2023-05-09T14:54:13.941Z,6.60
2023-05-09T14:55:13.940Z,6.00
2023-05-09T14:56:13.923Z,7.00
2023-05-09T14:57:13.970Z,4.80
2023-05-09T14:58:14.008Z,6.50
2023-05-09T14:59:13.909Z,7.60
2023-05-09T15:00:21.368Z,4.30
2023-05-09T15:01:13.917Z,6.00
2023-05-09T15:02:13.848Z,5.90
2023-05-09T15:03:13.905Z,7.60
2023-05-09T15:04:13.932Z,5.00
2023-05-09T15:05:13.852Z,5.00
2023-05-09T15:06:15.420Z,7.70
2023-05-09T15:07:13.832Z,6.50
2023-05-09T15:08:13.812Z,7.00
2023-05-09T15:09:14.039Z,6.30
2023-05-09T15:10:14.085Z,8.00
2023-05-09T15:11:13.802Z,9.60
2023-05-09T15:12:13.771Z,8.80
2023-05-09T15:13:13.791Z,8.10
2023-05-09T15:14:13.782Z,7.10
2023-05-09T15:15:14.848Z,8.80
2023-05-09T15:16:13.746Z,6.90
2023-05-09T15:17:14.907Z,6.50
2023-05-09T15:18:13.712Z,8.20
2023-05-09T15:19:13.706Z,7.70
2023-05-09T15:20:13.910Z,9.90
2023-05-09T15:21:14.354Z,9.20
2023-05-09T15:22:13.651Z,8.00
2023-05-09T15:23:13.676Z,6.00
2023-05-09T15:24:13.664Z,9.50
2023-05-09T15:25:13.667Z,5.70
2023-05-09T15:26:13.671Z,8.00
2023-05-09T15:27:13.608Z,7.30
2023-05-09T15:28:13.662Z,8.40
2023-05-09T15:29:13.601Z,8.20
2023-05-09T15:30:13.800Z,6.50
2023-05-09T15:31:13.655Z,6.60
2023-05-09T15:32:13.599Z,7.60
2023-05-09T15:33:13.677Z,7.80
2023-05-09T15:34:13.707Z,8.00
2023-05-09T15:35:13.549Z,7.80
2023-05-09T15:36:13.528Z,7.10
2023-05-09T15:37:13.517Z,7.10
2023-05-09T15:38:13.496Z,9.10
2023-05-09T15:39:13.490Z,5.40
2023-05-09T15:40:13.623Z,7.10
2023-05-09T15:41:13.472Z,6.00
2023-05-09T15:42:13.448Z,4.80
2023-05-09T15:43:13.436Z,6.60
2023-05-09T15:44:13.415Z,8.90
2023-05-09T15:45:13.411Z,6.20
2023-05-09T15:46:13.551Z,6.40
2023-05-09T15:47:13.387Z,4.50
2023-05-09T15:48:13.371Z,5.30
2023-05-09T15:49:13.394Z,7.20
2023-05-09T15:50:13.500Z,5.40
2023-05-09T15:51:13.461Z,6.30
2023-05-09T15:52:13.435Z,7.20
2023-05-09T15:53:13.404Z,5.60
2023-05-09T15:54:13.363Z,5.60
2023-05-09T15:55:13.337Z,9.00
2023-05-09T15:56:14.633Z,4.80
2023-05-09T15:57:13.301Z,6.10
2023-05-09T15:58:13.310Z,7.90
2023-05-09T15:59:13.290Z,8.70
2023-05-09T16:00:13.482Z,5.40
2023-05-09T16:01:13.358Z,6.30
2023-05-09T16:02:13.248Z,6.90
2023-05-09T16:03:13.289Z,6.30
2023-05-09T16:04:13.239Z,6.80
2023-05-09T16:05:13.263Z,5.40
2023-05-09T16:06:13.219Z,6.20
2023-05-09T16:15:00.063Z,6.40
2023-05-09T16:16:00.820Z,6.40
2023-05-09T16:17:00.700Z,6.80
2023-05-09T16:18:00.760Z,5.50
2023-05-09T16:19:00.846Z,7.60
2023-05-09T16:20:00.748Z,7.50
2023-05-09T16:21:00.693Z,5.70
2023-05-09T16:22:00.829Z,7.70
2023-05-09T16:23:00.697Z,6.70
2023-05-09T16:24:01.434Z,7.20
2023-05-09T16:29:42.648Z,8.20
2023-05-09T16:30:43.574Z,10.10
2023-05-09T16:31:43.983Z,11.10
2023-05-09T16:32:43.621Z,7.10
2023-05-09T16:33:43.502Z,7.30
2023-05-09T16:34:43.460Z,5.40
2023-05-09T16:35:43.501Z,5.70
2023-05-09T16:36:43.460Z,6.60
2023-05-09T16:37:43.462Z,5.70
2023-05-09T16:38:43.462Z,6.60
2023-05-09T17:36:24.398Z,3.10
2023-05-09T17:37:25.372Z,4.50
2023-05-09T17:38:25.340Z,5.40
2023-05-09T17:39:25.365Z,4.80
2023-05-09T17:40:25.384Z,4.90
2023-05-09T17:41:25.399Z,4.20
2023-05-09T17:42:25.414Z,3.60
2023-05-09T17:43:25.545Z,2.70
2023-05-09T18:10:13.278Z,1.90
2023-05-09T18:11:13.912Z,2.50
2023-05-09T18:12:13.987Z,2.30
2023-05-09T18:13:13.883Z,3.20
2023-05-09T18:14:13.773Z,2.50
2023-05-09T18:15:13.786Z,2.30
2023-05-09T18:16:13.852Z,2.20
2023-05-09T18:43:58.402Z,3.20
2023-05-09T18:45:00.054Z,2.10
2023-05-09T18:45:59.311Z,2.50
2023-05-09T18:46:59.355Z,2.10
2023-05-09T18:47:59.420Z,2.40
2023-05-09T18:48:59.299Z,1.50
2023-05-09T18:50:01.687Z,3.20
2023-05-09T18:50:59.166Z,1.10
2023-05-09T18:51:59.238Z,2.10
2023-05-09T18:52:59.209Z,2.00
2023-05-09T18:53:59.328Z,2.10
2023-05-09T18:54:59.355Z,2.50
2023-05-09T18:55:59.325Z,3.90
2023-05-09T18:56:59.170Z,5.60
2023-05-09T18:58:08.046Z,1.00
2023-05-09T18:58:59.239Z,2.40
2023-05-09T18:59:59.213Z,3.70
2023-05-09T19:00:59.308Z,3.80
2023-05-09T19:01:59.114Z,1.00
2023-05-09T19:02:59.210Z,2.50
2023-05-09T19:03:59.176Z,14.10
2023-05-09T19:04:59.212Z,1.90
2023-05-09T19:05:59.142Z,1.10
2023-05-09T19:06:59.158Z,2.10
2023-05-09T19:07:59.258Z,1.00
2023-05-09T19:08:59.050Z,1.40
2023-05-09T19:09:59.117Z,2.20
2023-05-09T19:10:59.048Z,1.40
2023-05-09T19:11:59.070Z,1.90
2023-05-09T19:13:08.172Z,1.60
2023-05-09T19:13:59.095Z,3.20
2023-05-09T19:14:59.206Z,1.90
2023-05-09T19:15:59.053Z,1.60
2023-05-09T19:16:59.188Z,1.70
2023-05-09T19:17:59.163Z,2.20
2023-05-09T19:18:59.107Z,5.90
2023-05-09T19:19:59.022Z,2.30
2023-05-09T19:20:59.140Z,3.00
2023-05-09T19:21:59.109Z,1.70
2023-05-09T19:22:59.119Z,2.40
2023-05-09T19:23:59.240Z,2.20
2023-05-09T19:24:59.114Z,1.80
2023-05-09T19:25:59.005Z,1.30
2023-05-09T19:26:58.982Z,1.90
2023-05-09T19:27:59.048Z,1.20